WARM SPRINGS (USACE) (WRS)

Elevation: 440' · RUSSIAN R basin · Operator: US Army Corps of Engineers

Provisional data, subject to change.
Query executed Monday at 12:26:04   clock

Select a sensor type for a plot of data.
Note: Reservoir Flows are daily averages.

Earlier

Date RES ELE    STORAGE    RES CHG    TOC STO    ABV TOC    OUTFLOW    INFLOW    PPT INC    TEMP MN    TEMP MX    EVP PAN   
 FEET   AF   AF   AF   AF   CFS   CFS   INCHES   DEG F   DEG F   INCHES  
04/26/2015 438.46 213292 -144 245000 -31708 78 18 0.00 6 28 0.19
04/27/2015 438.41 213172 -120 245000 -31828 78 33 0.07 11 35 0.22
04/28/2015 438.34 213004 -168 245000 -31996 78 7 0.00 9 31 0.21
04/29/2015 438.29 212884 -- 245000 -- 78 21 0.00 12 16 0.05
04/30/2015 438.23 212740 -144 245000 -32260 78 23 0.01 15 35 0.25
05/01/2015 438.15 212548 -192 245000 -32452 83 2 0.00 11 33 0.22
05/02/2015 438.08 212380 -- 245000 -32620 88 16 0.00 10 27 0.20
05/03/2015 438.01 212213 -- 245000 -32787 88 15 0.00 10 21 0.16
05/04/2015 437.94 212045 -168 245000 -32955 88 15 0.00 11 24 0.17
05/05/2015 437.86 211854 -- 245000 -33146 87 4 0.00 5 29 0.20
05/06/2015 437.79 211686 -168 245000 -33314 84 14 0.00 10 28 0.22
05/07/2015 437.70 211471 -215 245000 -33529 84 -12 0.00 10 26 0.19
05/08/2015 437.61 211256 -215 245000 -33744 83 -12 0.00 6 26 0.19
05/09/2015 437.54 211089 -167 245000 -33911 82 11 0.00 9 26 0.20
05/10/2015 437.49 210970 -119 245000 -34030 82 35 0.00 9 25 0.19
05/11/2015 437.42 210803 -167 245000 -34197 82 12 0.00 12 25 0.21
05/12/2015 437.31 210541 -262 245000 -34459 81 -36 0.00 10 24 0.21
05/13/2015 437.24 210374 -167 245000 -34626 82 11 0.00 10 24 0.20
05/14/2015 437.17 210207 -167 245000 -34793 83 10 0.00 8 24 0.16
05/15/2015 437.10 210041 -166 245000 -34959 83 14 0.00 6 27 0.21
05/16/2015 437.02 209851 -190 245000 -35149 84 1 0.00 7 26 0.19
05/17/2015 436.95 209684 -167 245000 -35316 84 13 0.00 9 25 0.19
05/18/2015 436.88 209518 -166 245000 -35482 84 13 0.00 8 24 0.18
05/19/2015 436.80 209328 -190 245000 -35672 83 1 0.00 8 25 0.19
05/20/2015 436.73 209162 -166 245000 -35838 84 12 0.00 8 23 0.18
05/21/2015 436.66 208996 -166 245000 -36004 86 13 0.00 13 25 0.17
05/22/2015 436.58 208806 -190 245000 -36194 87 6 0.00 12 26 0.21
05/23/2015 436.50 208617 -189 245000 -36383 89 9 0.00 10 28 0.22
05/24/2015 436.42 208428 -189 245000 -36572 89 8 0.00 8 27 0.21
05/25/2015 -- -- -- -- -- -- -- -- -- -- --

Later | Latest

Warning! This data is preliminary and subject to revision.

Show WRS Map | Plot WRS Data | 1 Month WRS Data | Real-Time WRS Data | WRS Info